KSEG/SEG METAR and TAF weather

Enter ICAO airport designator
Station Type Date Time Source
KSEG METAR 2020/04/04 20:53 UTC NOAA

KSEG 042053Z AUTO 00000KT 10SM OVC040 15/06 A2999 RMK AO2 SLP155 T01500056 56010


Station Type Date Time Source
KSEG Decoded METAR 2020/04/04 20:53 UTC NOAA

SELINSGROVE PENN VALLEY AIRPORT , PA, United States (KSEG) 40-49N 076-52W 134M
Apr 04, 2020 - 04:53 PM EDT / 2020.04.04 2053 UTC
Wind: Calm:0
Visibility: 10 mile(s):0
Sky conditions: overcast
Temperature: 59.0 F (15.0 C)
Dew Point: 42.1 F (5.6 C)
Relative Humidity: 53%
Pressure (altimeter): 29.99 in. Hg (1015 hPa)
Pressure tendency: 0.03 inches (1.0 hPa) lower than three hours ago
ob: KSEG 042053Z AUTO 00000KT 10SM OVC040 15/06 A2999 RMK AO2 SLP155 T01500056 56010
cycle: 21

Station Type Date Time Source
KSEG TAF UTC NOAA

Error!

Example: see airport list